sensor_id;sensor_type;location;lat;lon;timestamp;temperature;humidity
20233;DHT22;37438;55.674;13.074;2023-06-22T00:02:53;18.50;99.90
20233;DHT22;37438;55.674;13.074;2023-06-22T00:05:57;18.50;99.90
20233;DHT22;37438;55.674;13.074;2023-06-22T00:09:02;18.50;99.90
20233;DHT22;37438;55.674;13.074;2023-06-22T00:12:07;18.50;99.90
20233;DHT22;37438;55.674;13.074;2023-06-22T00:15:11;18.50;99.90
20233;DHT22;37438;55.674;13.074;2023-06-22T00:18:16;18.50;99.90
20233;DHT22;37438;55.674;13.074;2023-06-22T00:21:21;18.40;99.90
20233;DHT22;37438;55.674;13.074;2023-06-22T00:24:25;18.40;99.90
20233;DHT22;37438;55.674;13.074;2023-06-22T00:27:29;18.40;99.90
20233;DHT22;37438;55.674;13.074;2023-06-22T00:30:34;18.40;99.90
20233;DHT22;37438;55.674;13.074;2023-06-22T00:33:38;18.40;99.90
20233;DHT22;37438;55.674;13.074;2023-06-22T00:36:43;18.40;99.90
20233;DHT22;37438;55.674;13.074;2023-06-22T00:39:47;18.40;99.90
20233;DHT22;37438;55.674;13.074;2023-06-22T00:42:53;18.40;99.90
20233;DHT22;37438;55.674;13.074;2023-06-22T00:45:58;18.40;99.90
20233;DHT22;37438;55.674;13.074;2023-06-22T00:49:02;18.40;99.90
20233;DHT22;37438;55.674;13.074;2023-06-22T00:52:09;18.40;99.90
20233;DHT22;37438;55.674;13.074;2023-06-22T00:55:18;18.40;99.90
20233;DHT22;37438;55.674;13.074;2023-06-22T00:58:22;18.40;99.90
20233;DHT22;37438;55.674;13.074;2023-06-22T01:01:29;18.40;99.90
20233;DHT22;37438;55.674;13.074;2023-06-22T01:04:35;18.30;99.90
20233;DHT22;37438;55.674;13.074;2023-06-22T01:07:42;18.40;99.90
20233;DHT22;37438;55.674;13.074;2023-06-22T01:10:50;18.30;99.90
20233;DHT22;37438;55.674;13.074;2023-06-22T01:14:00;18.40;99.90
20233;DHT22;37438;55.674;13.074;2023-06-22T01:17:06;18.40;99.90
20233;DHT22;37438;55.674;13.074;2023-06-22T01:20:12;18.40;99.90
20233;DHT22;37438;55.674;13.074;2023-06-22T01:23:33;18.40;99.90
20233;DHT22;37438;55.674;13.074;2023-06-22T01:29:46;18.30;99.90
20233;DHT22;37438;55.674;13.074;2023-06-22T01:32:50;18.30;99.90
20233;DHT22;37438;55.674;13.074;2023-06-22T01:35:56;18.30;99.90
20233;DHT22;37438;55.674;13.074;2023-06-22T01:39:00;18.30;99.90
20233;DHT22;37438;55.674;13.074;2023-06-22T01:42:06;18.30;99.90
20233;DHT22;37438;55.674;13.074;2023-06-22T01:45:11;18.30;99.90
20233;DHT22;37438;55.674;13.074;2023-06-22T01:48:17;18.30;99.90
20233;DHT22;37438;55.674;13.074;2023-06-22T01:51:21;18.30;99.90
20233;DHT22;37438;55.674;13.074;2023-06-22T01:54:26;18.40;99.90
20233;DHT22;37438;55.674;13.074;2023-06-22T01:57:30;18.30;99.90
20233;DHT22;37438;55.674;13.074;2023-06-22T02:00:37;18.20;99.90
20233;DHT22;37438;55.674;13.074;2023-06-22T02:03:55;18.20;99.90
20233;DHT22;37438;55.674;13.074;2023-06-22T02:07:01;18.20;99.90
20233;DHT22;37438;55.674;13.074;2023-06-22T02:10:10;18.20;99.90
20233;DHT22;37438;55.674;13.074;2023-06-22T02:13:16;18.10;99.90
20233;DHT22;37438;55.674;13.074;2023-06-22T02:16:21;18.20;99.90
20233;DHT22;37438;55.674;13.074;2023-06-22T02:19:26;18.10;99.90
20233;DHT22;37438;55.674;13.074;2023-06-22T02:22:31;18.10;99.90
20233;DHT22;37438;55.674;13.074;2023-06-22T02:25:36;18.10;99.90
20233;DHT22;37438;55.674;13.074;2023-06-22T02:28:40;18.10;99.90
20233;DHT22;37438;55.674;13.074;2023-06-22T02:31:45;18.10;99.90
20233;DHT22;37438;55.674;13.074;2023-06-22T02:34:50;18.10;99.90
20233;DHT22;37438;55.674;13.074;2023-06-22T02:37:55;18.10;99.90
20233;DHT22;37438;55.674;13.074;2023-06-22T02:41:02;18.10;99.90
20233;DHT22;37438;55.674;13.074;2023-06-22T02:44:06;18.10;99.90
20233;DHT22;37438;55.674;13.074;2023-06-22T02:47:11;18.00;99.90
20233;DHT22;37438;55.674;13.074;2023-06-22T02:50:16;18.00;99.90
20233;DHT22;37438;55.674;13.074;2023-06-22T02:53:20;18.10;99.90
20233;DHT22;37438;55.674;13.074;2023-06-22T02:56:25;18.10;99.90
20233;DHT22;37438;55.674;13.074;2023-06-22T02:59:35;18.00;99.90
20233;DHT22;37438;55.674;13.074;2023-06-22T03:02:46;18.20;99.90
20233;DHT22;37438;55.674;13.074;2023-06-22T03:05:51;18.10;99.90
20233;DHT22;37438;55.674;13.074;2023-06-22T03:09:01;18.10;99.90
20233;DHT22;37438;55.674;13.074;2023-06-22T03:12:07;18.10;99.90
20233;DHT22;37438;55.674;13.074;2023-06-22T03:15:32;18.00;99.90
20233;DHT22;37438;55.674;13.074;2023-06-22T03:18:37;18.00;99.90
20233;DHT22;37438;55.674;13.074;2023-06-22T03:21:42;18.10;99.90
20233;DHT22;37438;55.674;13.074;2023-06-22T03:24:46;18.00;99.90
20233;DHT22;37438;55.674;13.074;2023-06-22T03:27:52;18.00;99.90
20233;DHT22;37438;55.674;13.074;2023-06-22T03:30:57;18.00;99.90
20233;DHT22;37438;55.674;13.074;2023-06-22T03:34:02;18.00;99.90
20233;DHT22;37438;55.674;13.074;2023-06-22T03:37:07;18.00;99.90
20233;DHT22;37438;55.674;13.074;2023-06-22T03:40:11;18.00;99.90
20233;DHT22;37438;55.674;13.074;2023-06-22T03:43:17;18.00;99.90
20233;DHT22;37438;55.674;13.074;2023-06-22T03:46:23;18.00;99.90
20233;DHT22;37438;55.674;13.074;2023-06-22T03:49:29;18.10;99.90
20233;DHT22;37438;55.674;13.074;2023-06-22T03:52:33;18.10;99.90
20233;DHT22;37438;55.674;13.074;2023-06-22T03:55:40;18.10;99.90
20233;DHT22;37438;55.674;13.074;2023-06-22T03:58:45;18.20;99.90
20233;DHT22;37438;55.674;13.074;2023-06-22T04:01:49;18.30;99.90
20233;DHT22;37438;55.674;13.074;2023-06-22T04:04:54;18.20;99.90
20233;DHT22;37438;55.674;13.074;2023-06-22T04:07:59;18.20;99.90
20233;DHT22;37438;55.674;13.074;2023-06-22T04:11:03;18.30;99.90
20233;DHT22;37438;55.674;13.074;2023-06-22T04:14:09;18.20;99.90
20233;DHT22;37438;55.674;13.074;2023-06-22T04:17:14;18.20;99.90
20233;DHT22;37438;55.674;13.074;2023-06-22T04:20:19;18.30;99.90
20233;DHT22;37438;55.674;13.074;2023-06-22T04:23:24;18.30;99.90
20233;DHT22;37438;55.674;13.074;2023-06-22T04:26:28;18.30;99.90
20233;DHT22;37438;55.674;13.074;2023-06-22T04:29:33;18.40;99.90
20233;DHT22;37438;55.674;13.074;2023-06-22T04:32:37;18.40;99.90
20233;DHT22;37438;55.674;13.074;2023-06-22T04:35:44;18.60;99.90
20233;DHT22;37438;55.674;13.074;2023-06-22T04:38:49;18.40;99.90
20233;DHT22;37438;55.674;13.074;2023-06-22T04:41:57;18.40;99.90
20233;DHT22;37438;55.674;13.074;2023-06-22T04:45:04;18.60;99.90
20233;DHT22;37438;55.674;13.074;2023-06-22T04:48:09;18.50;99.90
20233;DHT22;37438;55.674;13.074;2023-06-22T04:51:14;18.40;99.90
20233;DHT22;37438;55.674;13.074;2023-06-22T04:54:18;18.50;99.90
20233;DHT22;37438;55.674;13.074;2023-06-22T04:57:23;18.30;99.90
20233;DHT22;37438;55.674;13.074;2023-06-22T05:00:35;18.40;99.90
20233;DHT22;37438;55.674;13.074;2023-06-22T05:03:40;18.40;99.90
20233;DHT22;37438;55.674;13.074;2023-06-22T05:06:46;18.30;99.90
20233;DHT22;37438;55.674;13.074;2023-06-22T05:09:50;18.60;99.90
20233;DHT22;37438;55.674;13.074;2023-06-22T05:12:55;18.40;99.90
20233;DHT22;37438;55.674;13.074;2023-06-22T05:16:00;18.60;99.90
20233;DHT22;37438;55.674;13.074;2023-06-22T05:19:08;18.70;99.90
20233;DHT22;37438;55.674;13.074;2023-06-22T05:22:12;18.80;99.90
20233;DHT22;37438;55.674;13.074;2023-06-22T05:25:19;18.60;99.90
20233;DHT22;37438;55.674;13.074;2023-06-22T05:28:24;18.50;99.90
20233;DHT22;37438;55.674;13.074;2023-06-22T05:31:29;18.60;99.90
20233;DHT22;37438;55.674;13.074;2023-06-22T05:34:34;18.90;99.90
20233;DHT22;37438;55.674;13.074;2023-06-22T05:37:38;19.20;99.90
20233;DHT22;37438;55.674;13.074;2023-06-22T05:40:43;18.90;99.90
20233;DHT22;37438;55.674;13.074;2023-06-22T05:43:47;19.50;99.90
20233;DHT22;37438;55.674;13.074;2023-06-22T05:46:52;19.20;99.90
20233;DHT22;37438;55.674;13.074;2023-06-22T05:49:56;18.90;99.90
20233;DHT22;37438;55.674;13.074;2023-06-22T05:53:02;18.70;99.90
20233;DHT22;37438;55.674;13.074;2023-06-22T05:56:07;18.60;99.90
20233;DHT22;37438;55.674;13.074;2023-06-22T05:59:11;18.70;99.90
20233;DHT22;37438;55.674;13.074;2023-06-22T06:02:16;19.40;99.90
20233;DHT22;37438;55.674;13.074;2023-06-22T06:05:21;19.80;99.90
20233;DHT22;37438;55.674;13.074;2023-06-22T06:08:25;19.70;99.90
20233;DHT22;37438;55.674;13.074;2023-06-22T06:11:30;19.70;99.90
20233;DHT22;37438;55.674;13.074;2023-06-22T06:14:34;19.90;99.90
20233;DHT22;37438;55.674;13.074;2023-06-22T06:17:48;19.60;99.90
20233;DHT22;37438;55.674;13.074;2023-06-22T06:20:53;20.20;99.90
20233;DHT22;37438;55.674;13.074;2023-06-22T06:23:58;20.00;99.90
20233;DHT22;37438;55.674;13.074;2023-06-22T06:27:02;20.10;99.90
20233;DHT22;37438;55.674;13.074;2023-06-22T06:30:09;20.20;99.90
20233;DHT22;37438;55.674;13.074;2023-06-22T06:33:14;19.90;99.90
20233;DHT22;37438;55.674;13.074;2023-06-22T06:36:18;20.10;99.90
20233;DHT22;37438;55.674;13.074;2023-06-22T06:39:23;20.30;99.90
20233;DHT22;37438;55.674;13.074;2023-06-22T06:42:28;20.00;99.90
20233;DHT22;37438;55.674;13.074;2023-06-22T06:45:33;20.50;99.90
20233;DHT22;37438;55.674;13.074;2023-06-22T06:48:39;20.40;99.90
20233;DHT22;37438;55.674;13.074;2023-06-22T06:51:44;20.40;99.90
20233;DHT22;37438;55.674;13.074;2023-06-22T06:54:48;20.10;99.90
20233;DHT22;37438;55.674;13.074;2023-06-22T06:57:53;20.10;99.90
20233;DHT22;37438;55.674;13.074;2023-06-22T07:00:58;20.70;99.90
20233;DHT22;37438;55.674;13.074;2023-06-22T07:04:03;21.20;99.90
20233;DHT22;37438;55.674;13.074;2023-06-22T07:07:07;21.30;99.90
20233;DHT22;37438;55.674;13.074;2023-06-22T07:10:12;21.30;99.90
20233;DHT22;37438;55.674;13.074;2023-06-22T07:13:16;22.00;99.90
20233;DHT22;37438;55.674;13.074;2023-06-22T07:16:21;22.40;99.90
20233;DHT22;37438;55.674;13.074;2023-06-22T07:19:26;21.30;99.90
20233;DHT22;37438;55.674;13.074;2023-06-22T07:22:33;21.40;99.90
20233;DHT22;37438;55.674;13.074;2023-06-22T07:25:37;21.20;99.90
20233;DHT22;37438;55.674;13.074;2023-06-22T07:28:42;21.70;99.90
20233;DHT22;37438;55.674;13.074;2023-06-22T07:31:48;22.60;99.90
20233;DHT22;37438;55.674;13.074;2023-06-22T07:34:54;22.40;99.90
20233;DHT22;37438;55.674;13.074;2023-06-22T07:37:58;22.60;99.90
20233;DHT22;37438;55.674;13.074;2023-06-22T07:41:07;21.80;99.90
20233;DHT22;37438;55.674;13.074;2023-06-22T07:44:12;21.40;99.90
20233;DHT22;37438;55.674;13.074;2023-06-22T07:47:17;22.50;99.90
20233;DHT22;37438;55.674;13.074;2023-06-22T07:50:24;21.50;99.90
20233;DHT22;37438;55.674;13.074;2023-06-22T07:53:29;21.80;99.90
20233;DHT22;37438;55.674;13.074;2023-06-22T07:56:33;22.80;99.90
20233;DHT22;37438;55.674;13.074;2023-06-22T07:59:38;21.80;99.90
20233;DHT22;37438;55.674;13.074;2023-06-22T08:02:43;21.90;99.90
20233;DHT22;37438;55.674;13.074;2023-06-22T08:05:48;22.20;99.90
20233;DHT22;37438;55.674;13.074;2023-06-22T08:08:53;23.70;98.20
20233;DHT22;37438;55.674;13.074;2023-06-22T08:11:58;22.80;24.80
20233;DHT22;37438;55.674;13.074;2023-06-22T08:15:03;23.30;9.80
20233;DHT22;37438;55.674;13.074;2023-06-22T08:18:08;23.20;99.90
20233;DHT22;37438;55.674;13.074;2023-06-22T08:21:12;23.40;99.90
20233;DHT22;37438;55.674;13.074;2023-06-22T08:24:17;23.30;99.90
20233;DHT22;37438;55.674;13.074;2023-06-22T08:27:21;23.00;99.90
20233;DHT22;37438;55.674;13.074;2023-06-22T08:30:28;22.70;99.90
20233;DHT22;37438;55.674;13.074;2023-06-22T08:33:32;23.70;99.90
20233;DHT22;37438;55.674;13.074;2023-06-22T08:36:37;22.40;99.90
20233;DHT22;37438;55.674;13.074;2023-06-22T08:39:45;23.90;1.00
20233;DHT22;37438;55.674;13.074;2023-06-22T08:42:51;22.80;99.90
20233;DHT22;37438;55.674;13.074;2023-06-22T08:45:55;23.40;99.90
20233;DHT22;37438;55.674;13.074;2023-06-22T08:49:00;23.80;1.00
20233;DHT22;37438;55.674;13.074;2023-06-22T08:52:05;24.00;15.40
20233;DHT22;37438;55.674;13.074;2023-06-22T08:55:11;24.10;99.90
20233;DHT22;37438;55.674;13.074;2023-06-22T08:58:15;24.20;1.00
20233;DHT22;37438;55.674;13.074;2023-06-22T09:01:20;25.00;17.70
20233;DHT22;37438;55.674;13.074;2023-06-22T09:04:24;23.90;1.00
20233;DHT22;37438;55.674;13.074;2023-06-22T09:07:29;23.70;99.90
20233;DHT22;37438;55.674;13.074;2023-06-22T09:10:33;23.30;99.90
20233;DHT22;37438;55.674;13.074;2023-06-22T09:13:38;22.80;99.90
20233;DHT22;37438;55.674;13.074;2023-06-22T09:16:42;23.40;99.90
20233;DHT22;37438;55.674;13.074;2023-06-22T09:19:47;23.30;1.00
20233;DHT22;37438;55.674;13.074;2023-06-22T09:22:53;23.70;99.90
20233;DHT22;37438;55.674;13.074;2023-06-22T09:25:57;24.30;99.90
20233;DHT22;37438;55.674;13.074;2023-06-22T09:29:04;24.00;99.90
20233;DHT22;37438;55.674;13.074;2023-06-22T09:32:09;26.00;99.90
20233;DHT22;37438;55.674;13.074;2023-06-22T09:35:14;25.20;99.90
20233;DHT22;37438;55.674;13.074;2023-06-22T09:38:18;25.70;99.90
20233;DHT22;37438;55.674;13.074;2023-06-22T09:41:23;27.00;99.90
20233;DHT22;37438;55.674;13.074;2023-06-22T09:44:28;26.30;52.20
20233;DHT22;37438;55.674;13.074;2023-06-22T09:47:32;26.90;1.00
20233;DHT22;37438;55.674;13.074;2023-06-22T09:50:37;25.70;99.90
20233;DHT22;37438;55.674;13.074;2023-06-22T09:53:41;25.30;99.90
20233;DHT22;37438;55.674;13.074;2023-06-22T09:56:46;25.70;97.10
20233;DHT22;37438;55.674;13.074;2023-06-22T09:59:50;26.20;3.20
20233;DHT22;37438;55.674;13.074;2023-06-22T10:02:55;25.80;16.70
20233;DHT22;37438;55.674;13.074;2023-06-22T10:06:04;26.10;1.00
20233;DHT22;37438;55.674;13.074;2023-06-22T10:09:08;27.00;1.00
20233;DHT22;37438;55.674;13.074;2023-06-22T10:12:13;26.40;1.00
20233;DHT22;37438;55.674;13.074;2023-06-22T10:15:17;27.50;99.90
20233;DHT22;37438;55.674;13.074;2023-06-22T10:18:22;27.00;99.90
20233;DHT22;37438;55.674;13.074;2023-06-22T10:21:27;26.60;99.90
20233;DHT22;37438;55.674;13.074;2023-06-22T10:24:33;28.50;99.90
20233;DHT22;37438;55.674;13.074;2023-06-22T10:27:37;28.00;99.90
20233;DHT22;37438;55.674;13.074;2023-06-22T10:30:44;29.20;99.90
20233;DHT22;37438;55.674;13.074;2023-06-22T10:33:48;29.30;99.90
20233;DHT22;37438;55.674;13.074;2023-06-22T10:36:53;29.40;99.90
20233;DHT22;37438;55.674;13.074;2023-06-22T10:39:58;29.80;99.90
20233;DHT22;37438;55.674;13.074;2023-06-22T10:43:03;30.30;99.90
20233;DHT22;37438;55.674;13.074;2023-06-22T10:46:07;28.60;99.90
20233;DHT22;37438;55.674;13.074;2023-06-22T10:49:12;30.70;99.90
20233;DHT22;37438;55.674;13.074;2023-06-22T10:52:16;30.20;99.90
20233;DHT22;37438;55.674;13.074;2023-06-22T10:55:21;29.80;99.90
20233;DHT22;37438;55.674;13.074;2023-06-22T10:58:26;28.70;99.90
20233;DHT22;37438;55.674;13.074;2023-06-22T11:01:31;28.60;99.90
20233;DHT22;37438;55.674;13.074;2023-06-22T11:04:40;31.20;99.90
20233;DHT22;37438;55.674;13.074;2023-06-22T11:07:44;30.70;99.90
20233;DHT22;37438;55.674;13.074;2023-06-22T11:10:50;28.70;99.90
20233;DHT22;37438;55.674;13.074;2023-06-22T11:13:55;27.70;99.90
20233;DHT22;37438;55.674;13.074;2023-06-22T11:17:00;28.50;99.90
20233;DHT22;37438;55.674;13.074;2023-06-22T11:20:05;27.50;99.90
20233;DHT22;37438;55.674;13.074;2023-06-22T11:23:14;29.90;99.90
20233;DHT22;37438;55.674;13.074;2023-06-22T11:26:19;30.20;99.90
20233;DHT22;37438;55.674;13.074;2023-06-22T11:29:25;29.90;99.90
20233;DHT22;37438;55.674;13.074;2023-06-22T11:32:41;30.10;99.90
20233;DHT22;37438;55.674;13.074;2023-06-22T11:35:46;28.60;99.90
20233;DHT22;37438;55.674;13.074;2023-06-22T11:38:50;28.20;99.90
20233;DHT22;37438;55.674;13.074;2023-06-22T11:41:55;29.50;99.90
20233;DHT22;37438;55.674;13.074;2023-06-22T11:45:00;29.00;99.90
20233;DHT22;37438;55.674;13.074;2023-06-22T11:48:04;30.30;99.90
20233;DHT22;37438;55.674;13.074;2023-06-22T11:51:09;31.20;99.90
20233;DHT22;37438;55.674;13.074;2023-06-22T11:54:13;29.20;99.90
20233;DHT22;37438;55.674;13.074;2023-06-22T11:57:18;29.60;99.90
20233;DHT22;37438;55.674;13.074;2023-06-22T12:00:22;29.40;99.90
20233;DHT22;37438;55.674;13.074;2023-06-22T12:03:33;29.20;99.90
20233;DHT22;37438;55.674;13.074;2023-06-22T12:06:38;29.30;99.90
20233;DHT22;37438;55.674;13.074;2023-06-22T12:09:45;28.20;99.90
20233;DHT22;37438;55.674;13.074;2023-06-22T12:12:50;28.60;99.90
20233;DHT22;37438;55.674;13.074;2023-06-22T12:15:54;29.00;99.90
20233;DHT22;37438;55.674;13.074;2023-06-22T12:18:59;28.20;99.90
20233;DHT22;37438;55.674;13.074;2023-06-22T12:22:03;28.90;99.90
20233;DHT22;37438;55.674;13.074;2023-06-22T12:25:08;30.10;99.90
20233;DHT22;37438;55.674;13.074;2023-06-22T12:28:12;28.60;99.90
20233;DHT22;37438;55.674;13.074;2023-06-22T12:31:17;28.60;99.90
20233;DHT22;37438;55.674;13.074;2023-06-22T12:34:22;27.80;99.90
20233;DHT22;37438;55.674;13.074;2023-06-22T12:37:26;27.50;99.90
20233;DHT22;37438;55.674;13.074;2023-06-22T12:40:31;29.60;99.90
20233;DHT22;37438;55.674;13.074;2023-06-22T12:43:37;28.30;99.90
20233;DHT22;37438;55.674;13.074;2023-06-22T12:46:41;28.00;99.90
20233;DHT22;37438;55.674;13.074;2023-06-22T12:49:46;27.70;99.90
20233;DHT22;37438;55.674;13.074;2023-06-22T12:52:51;26.30;99.90
20233;DHT22;37438;55.674;13.074;2023-06-22T12:55:55;26.80;99.90
20233;DHT22;37438;55.674;13.074;2023-06-22T12:59:00;26.90;99.90
20233;DHT22;37438;55.674;13.074;2023-06-22T13:02:07;27.40;99.90
20233;DHT22;37438;55.674;13.074;2023-06-22T13:05:12;27.00;99.90
20233;DHT22;37438;55.674;13.074;2023-06-22T13:08:17;27.60;99.90
20233;DHT22;37438;55.674;13.074;2023-06-22T13:11:21;27.00;99.90
20233;DHT22;37438;55.674;13.074;2023-06-22T13:14:26;26.90;99.90
20233;DHT22;37438;55.674;13.074;2023-06-22T13:17:31;26.50;99.90
20233;DHT22;37438;55.674;13.074;2023-06-22T13:20:35;26.90;99.90
20233;DHT22;37438;55.674;13.074;2023-06-22T13:23:40;26.50;99.90
20233;DHT22;37438;55.674;13.074;2023-06-22T13:26:44;27.20;99.90
20233;DHT22;37438;55.674;13.074;2023-06-22T13:29:49;27.20;99.90
20233;DHT22;37438;55.674;13.074;2023-06-22T13:32:54;27.60;99.90
20233;DHT22;37438;55.674;13.074;2023-06-22T13:35:59;27.00;99.90
20233;DHT22;37438;55.674;13.074;2023-06-22T13:39:03;26.20;99.90
20233;DHT22;37438;55.674;13.074;2023-06-22T13:42:07;25.60;99.90
20233;DHT22;37438;55.674;13.074;2023-06-22T13:45:12;26.70;99.90
20233;DHT22;37438;55.674;13.074;2023-06-22T13:48:17;27.30;99.90
20233;DHT22;37438;55.674;13.074;2023-06-22T13:51:21;26.90;99.90
20233;DHT22;37438;55.674;13.074;2023-06-22T13:54:25;26.90;99.90
20233;DHT22;37438;55.674;13.074;2023-06-22T13:57:34;26.70;99.90
20233;DHT22;37438;55.674;13.074;2023-06-22T14:00:38;26.90;99.90
20233;DHT22;37438;55.674;13.074;2023-06-22T14:03:43;26.70;99.90
20233;DHT22;37438;55.674;13.074;2023-06-22T14:06:50;26.00;99.90
20233;DHT22;37438;55.674;13.074;2023-06-22T14:09:59;26.00;99.90
20233;DHT22;37438;55.674;13.074;2023-06-22T14:13:03;26.50;99.90
20233;DHT22;37438;55.674;13.074;2023-06-22T14:16:10;26.80;99.90
20233;DHT22;37438;55.674;13.074;2023-06-22T14:19:14;26.50;99.90
20233;DHT22;37438;55.674;13.074;2023-06-22T14:22:19;25.30;99.90
20233;DHT22;37438;55.674;13.074;2023-06-22T14:25:23;24.80;99.90
20233;DHT22;37438;55.674;13.074;2023-06-22T14:28:28;25.20;99.90
20233;DHT22;37438;55.674;13.074;2023-06-22T14:31:33;25.70;99.90
20233;DHT22;37438;55.674;13.074;2023-06-22T14:34:37;26.00;99.90
20233;DHT22;37438;55.674;13.074;2023-06-22T14:37:43;25.80;99.90
20233;DHT22;37438;55.674;13.074;2023-06-22T14:40:48;26.60;99.90
20233;DHT22;37438;55.674;13.074;2023-06-22T14:44:12;26.80;99.90
20233;DHT22;37438;55.674;13.074;2023-06-22T14:47:17;25.80;99.90
20233;DHT22;37438;55.674;13.074;2023-06-22T14:50:22;24.90;99.90
20233;DHT22;37438;55.674;13.074;2023-06-22T14:53:27;25.70;99.90
20233;DHT22;37438;55.674;13.074;2023-06-22T14:56:32;25.30;99.90
20233;DHT22;37438;55.674;13.074;2023-06-22T14:59:38;26.50;99.90
20233;DHT22;37438;55.674;13.074;2023-06-22T15:02:43;26.30;99.90
20233;DHT22;37438;55.674;13.074;2023-06-22T15:05:47;26.50;99.90
20233;DHT22;37438;55.674;13.074;2023-06-22T15:08:52;27.70;99.90
20233;DHT22;37438;55.674;13.074;2023-06-22T15:11:56;27.60;99.90
20233;DHT22;37438;55.674;13.074;2023-06-22T15:15:02;27.40;99.90
20233;DHT22;37438;55.674;13.074;2023-06-22T15:18:06;26.80;99.90
20233;DHT22;37438;55.674;13.074;2023-06-22T15:21:11;26.30;99.90
20233;DHT22;37438;55.674;13.074;2023-06-22T15:24:15;26.10;99.90
20233;DHT22;37438;55.674;13.074;2023-06-22T15:27:20;26.70;99.90
20233;DHT22;37438;55.674;13.074;2023-06-22T15:30:41;26.60;99.90
20233;DHT22;37438;55.674;13.074;2023-06-22T15:33:46;25.50;99.90
20233;DHT22;37438;55.674;13.074;2023-06-22T15:36:51;25.10;99.90
20233;DHT22;37438;55.674;13.074;2023-06-22T15:39:56;25.80;99.90
20233;DHT22;37438;55.674;13.074;2023-06-22T15:43:02;27.50;99.90
20233;DHT22;37438;55.674;13.074;2023-06-22T15:46:07;27.30;99.90
20233;DHT22;37438;55.674;13.074;2023-06-22T15:49:11;26.40;99.90
20233;DHT22;37438;55.674;13.074;2023-06-22T15:52:17;26.50;99.90
20233;DHT22;37438;55.674;13.074;2023-06-22T15:55:23;26.60;99.90
20233;DHT22;37438;55.674;13.074;2023-06-22T15:58:27;28.00;99.90
20233;DHT22;37438;55.674;13.074;2023-06-22T16:01:31;28.10;99.90
20233;DHT22;37438;55.674;13.074;2023-06-22T16:04:36;27.80;99.90
20233;DHT22;37438;55.674;13.074;2023-06-22T16:07:40;27.90;99.90
20233;DHT22;37438;55.674;13.074;2023-06-22T16:10:45;28.30;99.90
20233;DHT22;37438;55.674;13.074;2023-06-22T16:13:50;27.60;99.90
20233;DHT22;37438;55.674;13.074;2023-06-22T16:16:54;28.40;99.90
20233;DHT22;37438;55.674;13.074;2023-06-22T16:19:59;28.50;99.90
20233;DHT22;37438;55.674;13.074;2023-06-22T16:23:04;27.10;99.90
20233;DHT22;37438;55.674;13.074;2023-06-22T16:26:08;26.30;99.90
20233;DHT22;37438;55.674;13.074;2023-06-22T16:29:13;26.60;99.90
20233;DHT22;37438;55.674;13.074;2023-06-22T16:32:18;27.60;99.90
20233;DHT22;37438;55.674;13.074;2023-06-22T16:35:23;27.90;99.90
20233;DHT22;37438;55.674;13.074;2023-06-22T16:38:27;27.30;99.90
20233;DHT22;37438;55.674;13.074;2023-06-22T16:41:34;25.70;99.90
20233;DHT22;37438;55.674;13.074;2023-06-22T16:44:38;24.10;99.90
20233;DHT22;37438;55.674;13.074;2023-06-22T16:47:45;23.50;99.90
20233;DHT22;37438;55.674;13.074;2023-06-22T16:50:50;23.60;99.90
20233;DHT22;37438;55.674;13.074;2023-06-22T16:53:55;23.40;1.00
20233;DHT22;37438;55.674;13.074;2023-06-22T16:57:00;23.50;1.00
20233;DHT22;37438;55.674;13.074;2023-06-22T17:00:06;23.50;92.80
20233;DHT22;37438;55.674;13.074;2023-06-22T17:03:15;23.50;99.90
20233;DHT22;37438;55.674;13.074;2023-06-22T17:06:24;23.00;99.90
20233;DHT22;37438;55.674;13.074;2023-06-22T17:09:28;23.20;99.90
20233;DHT22;37438;55.674;13.074;2023-06-22T17:12:33;23.50;14.20
20233;DHT22;37438;55.674;13.074;2023-06-22T17:15:38;23.00;1.00
20233;DHT22;37438;55.674;13.074;2023-06-22T17:18:43;22.80;99.90
20233;DHT22;37438;55.674;13.074;2023-06-22T17:21:48;22.60;1.00
20233;DHT22;37438;55.674;13.074;2023-06-22T17:24:52;22.50;99.90
20233;DHT22;37438;55.674;13.074;2023-06-22T17:28:01;22.70;99.90
20233;DHT22;37438;55.674;13.074;2023-06-22T17:31:09;22.90;94.80
20233;DHT22;37438;55.674;13.074;2023-06-22T17:34:15;22.50;99.90
20233;DHT22;37438;55.674;13.074;2023-06-22T17:37:19;22.70;1.00
20233;DHT22;37438;55.674;13.074;2023-06-22T17:40:24;22.70;14.30
20233;DHT22;37438;55.674;13.074;2023-06-22T17:43:52;22.60;99.90
20233;DHT22;37438;55.674;13.074;2023-06-22T17:46:57;22.50;99.90
20233;DHT22;37438;55.674;13.074;2023-06-22T17:50:06;22.70;99.90
20233;DHT22;37438;55.674;13.074;2023-06-22T17:53:11;22.70;99.90
20233;DHT22;37438;55.674;13.074;2023-06-22T17:56:16;23.00;1.00
20233;DHT22;37438;55.674;13.074;2023-06-22T17:59:21;22.90;99.90
20233;DHT22;37438;55.674;13.074;2023-06-22T18:02:26;22.50;99.90
20233;DHT22;37438;55.674;13.074;2023-06-22T18:05:31;22.30;99.90
20233;DHT22;37438;55.674;13.074;2023-06-22T18:08:36;22.40;1.00
20233;DHT22;37438;55.674;13.074;2023-06-22T18:14:49;22.50;99.90
20233;DHT22;37438;55.674;13.074;2023-06-22T18:17:54;22.70;11.10
20233;DHT22;37438;55.674;13.074;2023-06-22T18:20:59;22.70;39.00
20233;DHT22;37438;55.674;13.074;2023-06-22T18:24:04;22.50;99.90
20233;DHT22;37438;55.674;13.074;2023-06-22T18:27:12;22.30;94.90
20233;DHT22;37438;55.674;13.074;2023-06-22T18:30:19;22.40;99.90
20233;DHT22;37438;55.674;13.074;2023-06-22T18:33:24;22.40;99.90
20233;DHT22;37438;55.674;13.074;2023-06-22T18:36:29;22.40;32.40
20233;DHT22;37438;55.674;13.074;2023-06-22T18:39:37;22.40;1.00
20233;DHT22;37438;55.674;13.074;2023-06-22T18:42:45;22.30;17.50
20233;DHT22;37438;55.674;13.074;2023-06-22T18:45:50;21.90;88.80
20233;DHT22;37438;55.674;13.074;2023-06-22T18:48:58;21.70;99.90
20233;DHT22;37438;55.674;13.074;2023-06-22T18:52:13;21.70;99.90
20233;DHT22;37438;55.674;13.074;2023-06-22T18:55:18;21.70;99.90
20233;DHT22;37438;55.674;13.074;2023-06-22T18:58:23;21.80;1.00
20233;DHT22;37438;55.674;13.074;2023-06-22T19:01:28;21.60;1.00
20233;DHT22;37438;55.674;13.074;2023-06-22T19:04:34;21.70;1.00
20233;DHT22;37438;55.674;13.074;2023-06-22T19:11:10;21.60;1.00
20233;DHT22;37438;55.674;13.074;2023-06-22T19:14:19;21.50;1.00
20233;DHT22;37438;55.674;13.074;2023-06-22T19:17:25;21.40;99.90
20233;DHT22;37438;55.674;13.074;2023-06-22T19:20:32;21.40;11.70
20233;DHT22;37438;55.674;13.074;2023-06-22T19:23:40;21.30;99.90
20233;DHT22;37438;55.674;13.074;2023-06-22T19:26:50;21.10;99.90